Stations météo

réclame
Mon MeteoGroup
Norrkoping/Kungsangen, Suède (2571): Température de l'air & dewpoint: 17.05.2018 22:00:00 - 23.05.2018 22:00:00 (CEST)Norrkoping/Kungsangen, Suède (2571): Vitesse du vent: 17.05.2018 22:00:00 - 23.05.2018 22:00:00 (CEST)Norrkoping/Kungsangen, Suède (2571): Direction du vent: 17.05.2018 22:00:00 - 23.05.2018 22:00:00 (CEST)Norrkoping/Kungsangen, Suède (2571): visibility: 17.05.2018 22:00:00 - 23.05.2018 22:00:00 (CEST)
Date & Time tt [°C] td [°C] ff [km/h] ff [knt] dd vv [km]
23.05.2018 22:00:00 15,0 11,0 9 5 E 10
23.05.2018 21:00:00 17,0 11,0 11 6 E 10
23.05.2018 20:00:00 21,0 10,0 16 9 ENE 10
23.05.2018 19:00:00 23,0 10,0 15 8 E 10
23.05.2018 18:00:00 24,0 10,0 16 9 ENE 10
23.05.2018 17:00:00 24,0 9,0 16 9 NE 10
23.05.2018 16:00:00 25,0 9,0 11 6 NNE 10
23.05.2018 15:00:00 24,0 8,0 15 8 NE 10
23.05.2018 14:00:00 24,0 9,0 13 7 NE 10
23.05.2018 13:00:00 24,0 8,0 8 4 - 10
23.05.2018 12:00:00 24,0 7,0 5 3 NNW 10
23.05.2018 11:00:00 23,0 7,0 4 2 NW 10
23.05.2018 10:00:00 21,0 9,0 5 3 - 10
23.05.2018 09:00:00 19,0 10,0 4 2 - 10
23.05.2018 08:00:00 16,0 10,0 5 3 - 10
23.05.2018 07:00:00 12,0 9,0 0 0 N 10
23.05.2018 06:00:00 9,0 7,0 2 1 E 10
23.05.2018 05:00:00 5,0 4,0 4 2 SE 10
23.05.2018 04:00:00 7,0 6,0 2 1 ESE 10
23.05.2018 03:00:00 7,0 6,0 4 2 E 10
23.05.2018 02:00:00 7,0 6,0 0 0 N 10
23.05.2018 01:00:00 8,0 6,0 0 0 N 10
23.05.2018 00:00:00 9,0 7,0 0 0 N 10
22.05.2018 23:00:00 13,0 8,0 5 3 - 10
22.05.2018 22:00:00 14,0 8,0 8 4 SE 10
22.05.2018 21:00:00 15,0 7,0 9 5 ESE 10
22.05.2018 20:00:00 19,0 5,0 13 7 SE 10
22.05.2018 19:00:00 21,0 5,0 18 10 ESE 10
22.05.2018 18:00:00 22,0 4,0 11 6 E 10
22.05.2018 17:00:00 22,0 4,0 11 6 E 10
22.05.2018 16:00:00 23,0 4,0 13 7 SE 10
22.05.2018 15:00:00 23,0 4,0 18 10 E 10
22.05.2018 14:00:00 23,0 3,0 16 9 SE 10
22.05.2018 13:00:00 22,0 5,0 13 7 ESE 10
22.05.2018 12:00:00 22,0 6,0 8 4 E 10
22.05.2018 11:00:00 21,0 2,0 5 3 NNE 10
22.05.2018 10:00:00 20,0 5,0 4 2 - 10
22.05.2018 09:00:00 17,0 9,0 4 2 - 10
22.05.2018 08:00:00 15,0 10,0 0 0 N 10
22.05.2018 07:00:00 11,0 9,0 0 0 N 10
22.05.2018 06:00:00 6,0 5,0 4 2 SE 10
22.05.2018 05:00:00 6,0 6,0 0 0 N 10
22.05.2018 04:00:00 6,0 5,0 0 0 N 10
22.05.2018 03:00:00 7,0 6,0 4 2 ESE 10
22.05.2018 02:00:00 8,0 7,0 4 2 SSE 10
22.05.2018 01:00:00 10,0 7,0 5 3 ESE 10
22.05.2018 00:00:00 11,0 7,0 5 3 E 10
21.05.2018 23:00:00 14,0 8,0 5 3 E 10
21.05.2018 22:00:00 16,0 7,0 8 4 E 10
21.05.2018 21:00:00 19,0 5,0 11 6 ESE 10
21.05.2018 20:00:00 21,0 7,0 15 8 ESE 10
21.05.2018 19:00:00 23,0 7,0 16 9 ESE 10
21.05.2018 18:00:00 23,0 7,0 18 10 ESE 10
21.05.2018 17:00:00 24,0 6,0 9 5 ESE 10
21.05.2018 16:00:00 24,0 6,0 9 5 SSE 10
21.05.2018 15:00:00 24,0 6,0 9 5 S 10
21.05.2018 14:00:00 23,0 7,0 8 4 ESE 10
21.05.2018 13:00:00 23,0 8,0 5 3 ESE 10
21.05.2018 12:00:00 21,0 6,0 4 2 - 10
21.05.2018 11:00:00 21,0 9,0 4 2 - 10
21.05.2018 10:00:00 19,0 8,0 2 1 - 10
21.05.2018 09:00:00 17,0 8,0 4 2 - 10
21.05.2018 08:00:00 15,0 7,0 8 4 WSW 10
21.05.2018 07:00:00 14,0 8,0 8 4 WSW 10
21.05.2018 06:00:00 11,0 6,0 0 0 N 10
21.05.2018 05:00:00 9,0 6,0 0 0 N 10
21.05.2018 04:00:00 7,0 4,0 0 0 N 10
21.05.2018 03:00:00 11,0 6,0 5 3 WSW 10
21.05.2018 02:00:00 10,0 6,0 0 0 N 10
21.05.2018 01:00:00 10,0 7,0 2 1 NW 10
21.05.2018 00:00:00 11,0 7,0 0 0 N 10
20.05.2018 23:00:00 14,0 7,0 0 0 N 10
20.05.2018 22:00:00 13,0 8,0 4 2 ESE 10
20.05.2018 21:00:00 20,0 6,0 8 4 WSW 10
20.05.2018 20:00:00 22,0 5,0 13 7 WSW 10
20.05.2018 19:00:00 23,0 6,0 13 7 WNW 10
20.05.2018 18:00:00 24,0 6,0 16 9 W 10
20.05.2018 17:00:00 24,0 6,0 15 8 WSW 10
20.05.2018 16:00:00 24,0 6,0 9 5 W 10
20.05.2018 15:00:00 24,0 5,0 15 8 W 10
20.05.2018 14:00:00 23,0 3,0 11 6 - 10
20.05.2018 13:00:00 23,0 4,0 18 10 W 10
20.05.2018 12:00:00 22,0 2,0 16 9 WSW 10
20.05.2018 11:00:00 21,0 7,0 13 7 W 10
20.05.2018 10:00:00 20,0 7,0 13 7 W 10
20.05.2018 09:00:00 18,0 8,0 16 9 W 10
20.05.2018 08:00:00 15,0 7,0 9 5 W 10
20.05.2018 07:00:00 13,0 6,0 8 4 SW 10
20.05.2018 06:00:00 10,0 4,0 5 3 WSW 10
20.05.2018 05:00:00 8,0 3,0 5 3 WSW 10
20.05.2018 04:00:00 9,0 3,0 9 5 W 10
20.05.2018 03:00:00 12,0 3,0 9 5 W 10
20.05.2018 02:00:00 11,0 3,0 13 7 WSW 10
20.05.2018 01:00:00 12,0 3,0 5 3 W 10
20.05.2018 00:00:00 12,0 3,0 8 4 SW 10
19.05.2018 23:00:00 14,0 3,0 15 8 SSW 10
19.05.2018 22:00:00 15,0 3,0 13 7 S 10
19.05.2018 21:00:00 17,0 3,0 13 7 S 10
19.05.2018 20:00:00 19,0 4,0 13 7 SSE 10
19.05.2018 19:00:00 20,0 3,0 9 5 WSW 10
19.05.2018 18:00:00 21,0 2,0 9 5 W 10
19.05.2018 17:00:00 21,0 1,0 0 0 N 10
19.05.2018 16:00:00 21,0 2,0 4 2 WSW 10
19.05.2018 15:00:00 20,0 1,0 8 4 S 10
19.05.2018 14:00:00 20,0 1,0 5 3 - 10
19.05.2018 13:00:00 19,0 0,0 5 3 E 10
19.05.2018 12:00:00 18,0 1,0 5 3 NE 10
19.05.2018 11:00:00 17,0 1,0 5 3 SSE 10
19.05.2018 10:00:00 17,0 0,0 5 3 - 10
19.05.2018 09:00:00 16,0 0,0 4 2 - 10
19.05.2018 08:00:00 13,0 7,0 0 0 N 10
19.05.2018 07:00:00 9,0 6,0 2 1 ESE 10
19.05.2018 06:00:00 5,0 3,0 0 0 N 10
19.05.2018 05:00:00 2,0 1,0 4 2 ESE 10
19.05.2018 04:00:00 3,0 2,0 0 0 N 10
19.05.2018 03:00:00 3,0 2,0 2 1 E 10
19.05.2018 02:00:00 4,0 3,0 0 0 N 10
19.05.2018 01:00:00 5,0 3,0 5 3 ESE 10
19.05.2018 00:00:00 6,0 3,0 4 2 E 10
18.05.2018 23:00:00 10,0 3,0 4 2 E 10
18.05.2018 22:00:00 11,0 2,0 9 5 SSE 10
18.05.2018 21:00:00 13,0 2,0 11 6 E 10
18.05.2018 20:00:00 17,0 -1,0 11 6 NE 10
18.05.2018 19:00:00 18,0 -1,0 13 7 NNE 10
18.05.2018 18:00:00 19,0 -2,0 13 7 NE 10
18.05.2018 17:00:00 19,0 0,0 13 7 NE 10
18.05.2018 16:00:00 19,0 -2,0 15 8 NE 10
18.05.2018 15:00:00 18,0 -1,0 16 9 NNE 10
18.05.2018 14:00:00 18,0 0,0 11 6 NE 10
18.05.2018 13:00:00 17,0 0,0 15 8 NNE 10
18.05.2018 12:00:00 17,0 0,0 16 9 N 10
18.05.2018 11:00:00 16,0 1,0 16 9 NE 10
18.05.2018 10:00:00 15,0 2,0 16 9 N 10
18.05.2018 09:00:00 14,0 3,0 16 9 N 10
18.05.2018 08:00:00 12,0 5,0 15 8 N 10
18.05.2018 07:00:00 11,0 5,0 11 6 N 10
18.05.2018 06:00:00 11,0 4,0 15 8 NNW 10
18.05.2018 05:00:00 11,0 3,0 13 7 N 10
18.05.2018 04:00:00 11,0 3,0 13 7 NNW 10
18.05.2018 03:00:00 11,0 3,0 15 8 NNW 10
18.05.2018 02:00:00 12,0 3,0 16 9 NNE 10
18.05.2018 01:00:00 12,0 2,0 15 8 NNE 10
18.05.2018 00:00:00 13,0 2,0 18 10 NNE 10
17.05.2018 23:00:00 13,0 4,0 13 7 N 10
17.05.2018 22:00:00 14,0 4,0 13 7 NNE 10

tt = Température de l'air
td = dewpoint
ff = Vitesse du vent
dd = Direction du vent
vv = visibility

stations d'obs. à proximité